sensor_id;sensor_type;location;lat;lon;timestamp;P1;durP1;ratioP1;P2;durP2;ratioP2
58240;SDS011;45058;55.772;38.224;2023-05-02T00:02:09;4.13;;;2.90;;
58240;SDS011;45058;55.772;38.224;2023-05-02T00:04:36;9.17;;;3.50;;
58240;SDS011;45058;55.772;38.224;2023-05-02T00:07:03;5.43;;;3.70;;
58240;SDS011;45058;55.772;38.224;2023-05-02T00:09:29;10.00;;;3.60;;
58240;SDS011;45058;55.772;38.224;2023-05-02T00:11:56;9.70;;;3.83;;
58240;SDS011;45058;55.772;38.224;2023-05-02T00:14:23;8.00;;;3.97;;
58240;SDS011;45058;55.772;38.224;2023-05-02T00:16:49;6.87;;;4.30;;
58240;SDS011;45058;55.772;38.224;2023-05-02T00:19:16;7.57;;;4.20;;
58240;SDS011;45058;55.772;38.224;2023-05-02T00:21:42;5.47;;;4.10;;
58240;SDS011;45058;55.772;38.224;2023-05-02T00:24:13;8.33;;;4.23;;
58240;SDS011;45058;55.772;38.224;2023-05-02T00:26:41;12.23;;;5.30;;
58240;SDS011;45058;55.772;38.224;2023-05-02T00:29:07;7.57;;;4.67;;
58240;SDS011;45058;55.772;38.224;2023-05-02T00:31:33;7.30;;;4.77;;
58240;SDS011;45058;55.772;38.224;2023-05-02T00:34:00;6.23;;;4.17;;
58240;SDS011;45058;55.772;38.224;2023-05-02T00:36:27;7.53;;;4.73;;
58240;SDS011;45058;55.772;38.224;2023-05-02T00:38:53;10.90;;;6.27;;
58240;SDS011;45058;55.772;38.224;2023-05-02T00:41:20;11.07;;;5.13;;
58240;SDS011;45058;55.772;38.224;2023-05-02T00:43:46;10.57;;;5.33;;
58240;SDS011;45058;55.772;38.224;2023-05-02T00:46:13;9.70;;;5.73;;
58240;SDS011;45058;55.772;38.224;2023-05-02T00:48:40;12.23;;;5.97;;
58240;SDS011;45058;55.772;38.224;2023-05-02T00:51:06;11.40;;;5.87;;
58240;SDS011;45058;55.772;38.224;2023-05-02T00:53:36;9.03;;;5.53;;
58240;SDS011;45058;55.772;38.224;2023-05-02T00:56:03;7.73;;;4.40;;
58240;SDS011;45058;55.772;38.224;2023-05-02T00:58:29;10.47;;;5.43;;
58240;SDS011;45058;55.772;38.224;2023-05-02T01:03:35;7.57;;;4.93;;
58240;SDS011;45058;55.772;38.224;2023-05-02T01:06:22;8.00;;;3.50;;
58240;SDS011;45058;55.772;38.224;2023-05-02T01:09:01;7.77;;;4.93;;
58240;SDS011;45058;55.772;38.224;2023-05-02T01:14:12;10.50;;;4.47;;
58240;SDS011;45058;55.772;38.224;2023-05-02T01:16:41;6.80;;;4.67;;
58240;SDS011;45058;55.772;38.224;2023-05-02T01:19:08;6.60;;;4.00;;
58240;SDS011;45058;55.772;38.224;2023-05-02T01:21:39;7.40;;;4.50;;
58240;SDS011;45058;55.772;38.224;2023-05-02T01:24:11;6.80;;;4.40;;
58240;SDS011;45058;55.772;38.224;2023-05-02T01:29:10;9.07;;;5.57;;
58240;SDS011;45058;55.772;38.224;2023-05-02T01:31:40;8.97;;;5.13;;
58240;SDS011;45058;55.772;38.224;2023-05-02T01:34:09;9.23;;;5.73;;
58240;SDS011;45058;55.772;38.224;2023-05-02T01:36:37;9.23;;;5.40;;
58240;SDS011;45058;55.772;38.224;2023-05-02T01:39:08;8.83;;;5.30;;
58240;SDS011;45058;55.772;38.224;2023-05-02T01:41:36;10.03;;;5.10;;
58240;SDS011;45058;55.772;38.224;2023-05-02T01:44:03;6.57;;;4.87;;
58240;SDS011;45058;55.772;38.224;2023-05-02T01:46:34;10.40;;;5.33;;
58240;SDS011;45058;55.772;38.224;2023-05-02T01:49:04;9.97;;;5.77;;
58240;SDS011;45058;55.772;38.224;2023-05-02T01:51:32;9.63;;;6.10;;
58240;SDS011;45058;55.772;38.224;2023-05-02T01:54:02;10.33;;;5.83;;
58240;SDS011;45058;55.772;38.224;2023-05-02T01:56:33;8.43;;;5.33;;
58240;SDS011;45058;55.772;38.224;2023-05-02T01:59:01;12.97;;;7.73;;
58240;SDS011;45058;55.772;38.224;2023-05-02T02:01:34;9.90;;;5.73;;
58240;SDS011;45058;55.772;38.224;2023-05-02T02:04:04;13.87;;;8.77;;
58240;SDS011;45058;55.772;38.224;2023-05-02T02:06:34;9.97;;;6.90;;
58240;SDS011;45058;55.772;38.224;2023-05-02T02:09:01;11.27;;;7.20;;
58240;SDS011;45058;55.772;38.224;2023-05-02T02:11:33;15.50;;;7.93;;
58240;SDS011;45058;55.772;38.224;2023-05-02T02:14:03;11.73;;;8.63;;
58240;SDS011;45058;55.772;38.224;2023-05-02T02:16:52;12.67;;;8.60;;
58240;SDS011;45058;55.772;38.224;2023-05-02T02:19:22;14.97;;;9.00;;
58240;SDS011;45058;55.772;38.224;2023-05-02T02:21:49;10.73;;;7.80;;
58240;SDS011;45058;55.772;38.224;2023-05-02T02:24:17;11.37;;;7.93;;
58240;SDS011;45058;55.772;38.224;2023-05-02T02:26:49;12.20;;;8.30;;
58240;SDS011;45058;55.772;38.224;2023-05-02T02:29:16;15.40;;;7.70;;
58240;SDS011;45058;55.772;38.224;2023-05-02T02:31:42;14.03;;;7.87;;
58240;SDS011;45058;55.772;38.224;2023-05-02T02:34:09;10.50;;;7.63;;
58240;SDS011;45058;55.772;38.224;2023-05-02T02:37:38;11.07;;;7.83;;
58240;SDS011;45058;55.772;38.224;2023-05-02T02:39:58;12.43;;;8.27;;
58240;SDS011;45058;55.772;38.224;2023-05-02T02:48:09;12.03;;;7.80;;
58240;SDS011;45058;55.772;38.224;2023-05-02T02:50:58;11.40;;;7.00;;
58240;SDS011;45058;55.772;38.224;2023-05-02T02:53:52;11.20;;;6.82;;
58240;SDS011;45058;55.772;38.224;2023-05-02T02:56:46;9.03;;;6.57;;
58240;SDS011;45058;55.772;38.224;2023-05-02T03:01:57;12.07;;;5.90;;
58240;SDS011;45058;55.772;38.224;2023-05-02T03:04:38;8.27;;;5.90;;
58240;SDS011;45058;55.772;38.224;2023-05-02T03:07:06;10.37;;;5.83;;
58240;SDS011;45058;55.772;38.224;2023-05-02T03:09:42;7.60;;;5.50;;
58240;SDS011;45058;55.772;38.224;2023-05-02T03:12:14;10.27;;;5.40;;
58240;SDS011;45058;55.772;38.224;2023-05-02T03:14:42;9.63;;;6.30;;
58240;SDS011;45058;55.772;38.224;2023-05-02T03:17:08;9.47;;;5.73;;
58240;SDS011;45058;55.772;38.224;2023-05-02T03:19:36;12.17;;;6.23;;
58240;SDS011;45058;55.772;38.224;2023-05-02T03:22:03;11.97;;;7.27;;
58240;SDS011;45058;55.772;38.224;2023-05-02T03:24:33;17.73;;;8.07;;
58240;SDS011;45058;55.772;38.224;2023-05-02T03:27:00;13.73;;;7.10;;
58240;SDS011;45058;55.772;38.224;2023-05-02T03:29:32;12.63;;;6.70;;
58240;SDS011;45058;55.772;38.224;2023-05-02T03:31:59;12.63;;;6.57;;
58240;SDS011;45058;55.772;38.224;2023-05-02T03:34:26;10.77;;;6.87;;
58240;SDS011;45058;55.772;38.224;2023-05-02T03:36:53;9.97;;;5.13;;
58240;SDS011;45058;55.772;38.224;2023-05-02T03:39:20;8.20;;;5.53;;
58240;SDS011;45058;55.772;38.224;2023-05-02T03:41:47;10.90;;;4.97;;
58240;SDS011;45058;55.772;38.224;2023-05-02T03:44:17;9.27;;;4.23;;
58240;SDS011;45058;55.772;38.224;2023-05-02T03:46:44;8.73;;;4.57;;
58240;SDS011;45058;55.772;38.224;2023-05-02T03:49:11;9.07;;;4.23;;
58240;SDS011;45058;55.772;38.224;2023-05-02T03:51:41;8.27;;;3.93;;
58240;SDS011;45058;55.772;38.224;2023-05-02T03:54:08;6.63;;;3.40;;
58240;SDS011;45058;55.772;38.224;2023-05-02T03:56:38;6.00;;;3.57;;
58240;SDS011;45058;55.772;38.224;2023-05-02T03:59:16;7.30;;;3.10;;
58240;SDS011;45058;55.772;38.224;2023-05-02T04:01:43;7.43;;;3.10;;
58240;SDS011;45058;55.772;38.224;2023-05-02T04:04:12;9.57;;;3.93;;
58240;SDS011;45058;55.772;38.224;2023-05-02T04:06:45;8.70;;;3.27;;
58240;SDS011;45058;55.772;38.224;2023-05-02T04:09:12;5.97;;;2.20;;
58240;SDS011;45058;55.772;38.224;2023-05-02T04:11:47;4.43;;;2.93;;
58240;SDS011;45058;55.772;38.224;2023-05-02T04:14:13;3.83;;;2.13;;
58240;SDS011;45058;55.772;38.224;2023-05-02T04:16:46;3.17;;;2.27;;
58240;SDS011;45058;55.772;38.224;2023-05-02T04:19:20;4.63;;;2.10;;
58240;SDS011;45058;55.772;38.224;2023-05-02T04:21:47;5.40;;;2.47;;
58240;SDS011;45058;55.772;38.224;2023-05-02T04:24:14;4.17;;;2.60;;
58240;SDS011;45058;55.772;38.224;2023-05-02T04:26:41;4.97;;;2.30;;
58240;SDS011;45058;55.772;38.224;2023-05-02T04:29:11;3.60;;;1.97;;
58240;SDS011;45058;55.772;38.224;2023-05-02T04:31:38;6.33;;;2.40;;
58240;SDS011;45058;55.772;38.224;2023-05-02T04:34:05;3.60;;;1.90;;
58240;SDS011;45058;55.772;38.224;2023-05-02T04:36:38;2.73;;;1.63;;
58240;SDS011;45058;55.772;38.224;2023-05-02T04:39:07;3.73;;;1.77;;
58240;SDS011;45058;55.772;38.224;2023-05-02T04:41:38;3.97;;;1.57;;
58240;SDS011;45058;55.772;38.224;2023-05-02T04:44:06;5.32;;;1.80;;
58240;SDS011;45058;55.772;38.224;2023-05-02T04:46:34;3.30;;;1.52;;
58240;SDS011;45058;55.772;38.224;2023-05-02T04:49:01;6.47;;;1.80;;
58240;SDS011;45058;55.772;38.224;2023-05-02T04:51:29;4.37;;;1.67;;
58240;SDS011;45058;55.772;38.224;2023-05-02T04:53:57;2.58;;;1.60;;
58240;SDS011;45058;55.772;38.224;2023-05-02T04:56:25;3.90;;;1.63;;
58240;SDS011;45058;55.772;38.224;2023-05-02T04:58:52;6.93;;;1.83;;
58240;SDS011;45058;55.772;38.224;2023-05-02T05:01:19;4.38;;;1.60;;
58240;SDS011;45058;55.772;38.224;2023-05-02T05:03:47;5.05;;;1.55;;
58240;SDS011;45058;55.772;38.224;2023-05-02T05:06:16;4.63;;;1.50;;
58240;SDS011;45058;55.772;38.224;2023-05-02T05:08:57;7.30;;;1.30;;
58240;SDS011;45058;55.772;38.224;2023-05-02T05:11:25;3.33;;;1.25;;
58240;SDS011;45058;55.772;38.224;2023-05-02T05:13:52;1.52;;;1.10;;
58240;SDS011;45058;55.772;38.224;2023-05-02T05:16:19;5.70;;;1.88;;
58240;SDS011;45058;55.772;38.224;2023-05-02T05:18:47;3.63;;;1.50;;
58240;SDS011;45058;55.772;38.224;2023-05-02T05:24:00;2.22;;;1.10;;
58240;SDS011;45058;55.772;38.224;2023-05-02T05:26:28;3.03;;;1.05;;
58240;SDS011;45058;55.772;38.224;2023-05-02T05:28:54;3.97;;;1.25;;
58240;SDS011;45058;55.772;38.224;2023-05-02T05:31:23;4.20;;;1.17;;
58240;SDS011;45058;55.772;38.224;2023-05-02T05:33:53;3.40;;;1.75;;
58240;SDS011;45058;55.772;38.224;2023-05-02T05:36:21;5.00;;;1.17;;
58240;SDS011;45058;55.772;38.224;2023-05-02T05:38:47;2.97;;;1.45;;
58240;SDS011;45058;55.772;38.224;2023-05-02T05:41:13;4.45;;;1.27;;
58240;SDS011;45058;55.772;38.224;2023-05-02T05:43:45;3.17;;;1.13;;
58240;SDS011;45058;55.772;38.224;2023-05-02T05:46:11;2.67;;;1.10;;
58240;SDS011;45058;55.772;38.224;2023-05-02T05:48:37;2.88;;;0.90;;
58240;SDS011;45058;55.772;38.224;2023-05-02T05:51:04;5.57;;;0.90;;
58240;SDS011;45058;55.772;38.224;2023-05-02T05:53:43;1.15;;;0.70;;
58240;SDS011;45058;55.772;38.224;2023-05-02T05:56:11;4.35;;;0.98;;
58240;SDS011;45058;55.772;38.224;2023-05-02T05:58:43;1.30;;;0.82;;
58240;SDS011;45058;55.772;38.224;2023-05-02T06:01:11;2.60;;;1.08;;
58240;SDS011;45058;55.772;38.224;2023-05-02T06:03:39;5.72;;;1.50;;
58240;SDS011;45058;55.772;38.224;2023-05-02T06:06:06;4.32;;;1.17;;
58240;SDS011;45058;55.772;38.224;2023-05-02T06:08:32;2.28;;;0.70;;
58240;SDS011;45058;55.772;38.224;2023-05-02T06:10:58;1.02;;;0.70;;
58240;SDS011;45058;55.772;38.224;2023-05-02T06:13:24;1.67;;;0.80;;
58240;SDS011;45058;55.772;38.224;2023-05-02T06:15:50;3.75;;;0.63;;
58240;SDS011;45058;55.772;38.224;2023-05-02T06:18:16;3.88;;;1.30;;
58240;SDS011;45058;55.772;38.224;2023-05-02T06:20:42;1.30;;;0.90;;
58240;SDS011;45058;55.772;38.224;2023-05-02T06:23:09;2.63;;;0.65;;
58240;SDS011;45058;55.772;38.224;2023-05-02T06:25:38;1.95;;;0.75;;
58240;SDS011;45058;55.772;38.224;2023-05-02T06:28:04;1.60;;;1.02;;
58240;SDS011;45058;55.772;38.224;2023-05-02T06:30:30;2.58;;;0.80;;
58240;SDS011;45058;55.772;38.224;2023-05-02T06:32:56;2.58;;;0.80;;
58240;SDS011;45058;55.772;38.224;2023-05-02T06:35:22;4.43;;;0.93;;
58240;SDS011;45058;55.772;38.224;2023-05-02T06:37:48;3.00;;;0.70;;
58240;SDS011;45058;55.772;38.224;2023-05-02T06:40:14;4.07;;;0.75;;
58240;SDS011;45058;55.772;38.224;2023-05-02T06:42:41;3.72;;;0.85;;
58240;SDS011;45058;55.772;38.224;2023-05-02T06:45:07;2.03;;;0.60;;
58240;SDS011;45058;55.772;38.224;2023-05-02T06:47:33;2.72;;;0.70;;
58240;SDS011;45058;55.772;38.224;2023-05-02T06:49:59;4.55;;;0.73;;
58240;SDS011;45058;55.772;38.224;2023-05-02T06:52:25;3.17;;;0.80;;
58240;SDS011;45058;55.772;38.224;2023-05-02T06:54:51;1.48;;;0.60;;
58240;SDS011;45058;55.772;38.224;2023-05-02T06:57:17;2.85;;;1.10;;
58240;SDS011;45058;55.772;38.224;2023-05-02T06:59:43;1.88;;;1.00;;
58240;SDS011;45058;55.772;38.224;2023-05-02T07:02:09;2.92;;;0.95;;
58240;SDS011;45058;55.772;38.224;2023-05-02T07:04:35;2.45;;;1.08;;
58240;SDS011;45058;55.772;38.224;2023-05-02T07:07:01;1.65;;;0.95;;
58240;SDS011;45058;55.772;38.224;2023-05-02T07:09:28;1.13;;;0.80;;
58240;SDS011;45058;55.772;38.224;2023-05-02T07:11:54;9.93;;;1.20;;
58240;SDS011;45058;55.772;38.224;2023-05-02T07:14:20;2.80;;;1.50;;
58240;SDS011;45058;55.772;38.224;2023-05-02T07:16:46;2.20;;;0.90;;
58240;SDS011;45058;55.772;38.224;2023-05-02T07:19:12;4.03;;;1.33;;
58240;SDS011;45058;55.772;38.224;2023-05-02T07:21:39;2.10;;;0.90;;
58240;SDS011;45058;55.772;38.224;2023-05-02T07:24:05;1.17;;;0.85;;
58240;SDS011;45058;55.772;38.224;2023-05-02T07:26:31;2.45;;;0.90;;
58240;SDS011;45058;55.772;38.224;2023-05-02T07:28:57;3.58;;;1.15;;
58240;SDS011;45058;55.772;38.224;2023-05-02T07:31:23;2.97;;;1.13;;
58240;SDS011;45058;55.772;38.224;2023-05-02T07:33:49;3.60;;;0.80;;
58240;SDS011;45058;55.772;38.224;2023-05-02T07:36:15;3.65;;;0.90;;
58240;SDS011;45058;55.772;38.224;2023-05-02T07:38:42;2.63;;;0.70;;
58240;SDS011;45058;55.772;38.224;2023-05-02T07:41:08;5.47;;;0.70;;
58240;SDS011;45058;55.772;38.224;2023-05-02T07:43:34;1.35;;;0.70;;
58240;SDS011;45058;55.772;38.224;2023-05-02T07:46:04;3.67;;;0.95;;
58240;SDS011;45058;55.772;38.224;2023-05-02T07:48:31;5.10;;;0.93;;
58240;SDS011;45058;55.772;38.224;2023-05-02T07:51:06;2.63;;;0.65;;
58240;SDS011;45058;55.772;38.224;2023-05-02T07:53:35;2.92;;;1.00;;
58240;SDS011;45058;55.772;38.224;2023-05-02T07:56:06;1.17;;;0.65;;
58240;SDS011;45058;55.772;38.224;2023-05-02T07:58:36;2.67;;;1.13;;
58240;SDS011;45058;55.772;38.224;2023-05-02T08:01:16;19.02;;;11.38;;
58240;SDS011;45058;55.772;38.224;2023-05-02T08:03:42;2.70;;;0.80;;
58240;SDS011;45058;55.772;38.224;2023-05-02T08:06:21;3.92;;;2.47;;
58240;SDS011;45058;55.772;38.224;2023-05-02T08:08:47;2.20;;;0.90;;
58240;SDS011;45058;55.772;38.224;2023-05-02T08:11:14;2.17;;;0.70;;
58240;SDS011;45058;55.772;38.224;2023-05-02T08:13:40;3.80;;;0.70;;
58240;SDS011;45058;55.772;38.224;2023-05-02T08:16:06;3.58;;;0.85;;
58240;SDS011;45058;55.772;38.224;2023-05-02T08:18:33;1.67;;;0.70;;
58240;SDS011;45058;55.772;38.224;2023-05-02T08:20:59;1.27;;;0.73;;
58240;SDS011;45058;55.772;38.224;2023-05-02T08:23:25;2.92;;;0.70;;
58240;SDS011;45058;55.772;38.224;2023-05-02T08:25:52;1.88;;;0.90;;
58240;SDS011;45058;55.772;38.224;2023-05-02T08:28:18;1.38;;;0.73;;
58240;SDS011;45058;55.772;38.224;2023-05-02T08:30:56;1.10;;;0.60;;
58240;SDS011;45058;55.772;38.224;2023-05-02T08:33:22;2.95;;;0.80;;
58240;SDS011;45058;55.772;38.224;2023-05-02T08:35:48;3.28;;;0.80;;
58240;SDS011;45058;55.772;38.224;2023-05-02T08:38:26;1.75;;;0.80;;
58240;SDS011;45058;55.772;38.224;2023-05-02T08:40:52;2.35;;;0.80;;
58240;SDS011;45058;55.772;38.224;2023-05-02T08:43:18;1.85;;;0.73;;
58240;SDS011;45058;55.772;38.224;2023-05-02T08:45:45;6.93;;;0.90;;
58240;SDS011;45058;55.772;38.224;2023-05-02T08:48:23;2.15;;;1.00;;
58240;SDS011;45058;55.772;38.224;2023-05-02T08:50:50;4.18;;;1.70;;
58240;SDS011;45058;55.772;38.224;2023-05-02T08:53:17;1.88;;;1.00;;
58240;SDS011;45058;55.772;38.224;2023-05-02T08:55:43;2.88;;;0.93;;
58240;SDS011;45058;55.772;38.224;2023-05-02T08:58:09;3.60;;;1.10;;
58240;SDS011;45058;55.772;38.224;2023-05-02T09:00:40;1.77;;;1.05;;
58240;SDS011;45058;55.772;38.224;2023-05-02T09:06:08;3.88;;;0.90;;
58240;SDS011;45058;55.772;38.224;2023-05-02T09:08:37;3.13;;;0.75;;
58240;SDS011;45058;55.772;38.224;2023-05-02T13:06:00;3.47;;;1.73;;
58240;SDS011;45058;55.772;38.224;2023-05-02T13:08:26;5.72;;;1.83;;
58240;SDS011;45058;55.772;38.224;2023-05-02T13:10:52;3.33;;;1.50;;
58240;SDS011;45058;55.772;38.224;2023-05-02T13:13:18;4.20;;;1.92;;
58240;SDS011;45058;55.772;38.224;2023-05-02T13:15:44;6.90;;;2.03;;
58240;SDS011;45058;55.772;38.224;2023-05-02T13:18:11;5.10;;;1.85;;
58240;SDS011;45058;55.772;38.224;2023-05-02T13:20:37;3.40;;;2.15;;
58240;SDS011;45058;55.772;38.224;2023-05-02T13:23:03;6.75;;;2.10;;
58240;SDS011;45058;55.772;38.224;2023-05-02T13:25:29;6.22;;;2.45;;
58240;SDS011;45058;55.772;38.224;2023-05-02T13:27:55;6.57;;;2.10;;
58240;SDS011;45058;55.772;38.224;2023-05-02T13:30:23;4.25;;;2.20;;
58240;SDS011;45058;55.772;38.224;2023-05-02T13:32:49;8.60;;;1.83;;
58240;SDS011;45058;55.772;38.224;2023-05-02T13:35:15;3.25;;;1.95;;
58240;SDS011;45058;55.772;38.224;2023-05-02T13:37:42;5.60;;;2.30;;
58240;SDS011;45058;55.772;38.224;2023-05-02T13:40:08;4.47;;;2.10;;
58240;SDS011;45058;55.772;38.224;2023-05-02T13:42:36;5.60;;;2.40;;
58240;SDS011;45058;55.772;38.224;2023-05-02T13:45:02;8.88;;;2.30;;
58240;SDS011;45058;55.772;38.224;2023-05-02T13:47:32;5.20;;;2.33;;
58240;SDS011;45058;55.772;38.224;2023-05-02T13:49:58;2.92;;;1.90;;
58240;SDS011;45058;55.772;38.224;2023-05-02T13:52:24;6.13;;;2.22;;
58240;SDS011;45058;55.772;38.224;2023-05-02T13:54:50;8.32;;;2.20;;
58240;SDS011;45058;55.772;38.224;2023-05-02T13:57:16;3.53;;;2.20;;
58240;SDS011;45058;55.772;38.224;2023-05-02T13:59:42;4.70;;;2.20;;
58240;SDS011;45058;55.772;38.224;2023-05-02T14:02:09;5.05;;;1.92;;
58240;SDS011;45058;55.772;38.224;2023-05-02T14:04:35;4.55;;;2.05;;
58240;SDS011;45058;55.772;38.224;2023-05-02T14:07:01;9.88;;;2.47;;
58240;SDS011;45058;55.772;38.224;2023-05-02T14:09:27;6.30;;;2.72;;
58240;SDS011;45058;55.772;38.224;2023-05-02T14:11:53;8.45;;;2.90;;
58240;SDS011;45058;55.772;38.224;2023-05-02T14:14:20;9.77;;;3.22;;
58240;SDS011;45058;55.772;38.224;2023-05-02T14:16:46;7.13;;;2.58;;
58240;SDS011;45058;55.772;38.224;2023-05-02T14:19:12;7.55;;;2.72;;
58240;SDS011;45058;55.772;38.224;2023-05-02T14:21:38;7.22;;;2.72;;
58240;SDS011;45058;55.772;38.224;2023-05-02T14:24:05;7.22;;;2.28;;
58240;SDS011;45058;55.772;38.224;2023-05-02T14:26:31;5.53;;;2.60;;
58240;SDS011;45058;55.772;38.224;2023-05-02T14:28:59;8.55;;;2.50;;
58240;SDS011;45058;55.772;38.224;2023-05-02T14:31:25;8.55;;;2.65;;
58240;SDS011;45058;55.772;38.224;2023-05-02T14:33:52;7.18;;;2.50;;
58240;SDS011;45058;55.772;38.224;2023-05-02T14:36:18;5.30;;;2.40;;
58240;SDS011;45058;55.772;38.224;2023-05-02T14:38:45;6.90;;;2.72;;
58240;SDS011;45058;55.772;38.224;2023-05-02T14:41:11;12.48;;;2.53;;
58240;SDS011;45058;55.772;38.224;2023-05-02T14:43:37;4.82;;;2.28;;
58240;SDS011;45058;55.772;38.224;2023-05-02T14:46:04;8.35;;;2.80;;
58240;SDS011;45058;55.772;38.224;2023-05-02T14:48:30;8.25;;;2.72;;
58240;SDS011;45058;55.772;38.224;2023-05-02T14:50:56;5.28;;;2.85;;
58240;SDS011;45058;55.772;38.224;2023-05-02T14:53:24;5.05;;;2.78;;
58240;SDS011;45058;55.772;38.224;2023-05-02T14:55:51;11.07;;;3.05;;
58240;SDS011;45058;55.772;38.224;2023-05-02T14:58:17;9.90;;;3.17;;
58240;SDS011;45058;55.772;38.224;2023-05-02T15:00:45;9.88;;;2.67;;
58240;SDS011;45058;55.772;38.224;2023-05-02T15:03:11;6.10;;;2.10;;
58240;SDS011;45058;55.772;38.224;2023-05-02T15:05:38;7.43;;;2.47;;
58240;SDS011;45058;55.772;38.224;2023-05-02T15:08:04;13.32;;;2.40;;
58240;SDS011;45058;55.772;38.224;2023-05-02T15:10:35;8.25;;;2.13;;
58240;SDS011;45058;55.772;38.224;2023-05-02T15:13:01;5.82;;;2.00;;
58240;SDS011;45058;55.772;38.224;2023-05-02T15:15:29;8.50;;;2.58;;
